sensor_id;sensor_type;location;lat;lon;timestamp;pressure;altitude;pressure_sealevel;temperature;humidity
77631;BME280;66798;47.370;8.552;2023-11-21T06:04:14;96270.16;;;7.98;81.42
77631;BME280;66798;47.370;8.552;2023-11-21T06:06:39;96280.38;;;8.00;82.43
77631;BME280;66798;47.370;8.552;2023-11-21T06:09:05;96284.06;;;7.99;81.35
77631;BME280;66798;47.370;8.552;2023-11-21T06:11:37;96280.34;;;7.84;82.57
77631;BME280;66798;47.370;8.552;2023-11-21T06:14:02;96282.47;;;7.98;82.17
77631;BME280;66798;47.370;8.552;2023-11-21T06:16:28;96281.97;;;8.01;81.33
77631;BME280;66798;47.370;8.552;2023-11-21T06:18:54;96283.03;;;8.10;81.96
77631;BME280;66798;47.370;8.552;2023-11-21T06:21:19;96284.88;;;8.15;81.65
77631;BME280;66798;47.370;8.552;2023-11-21T06:23:45;96281.72;;;8.07;81.25
77631;BME280;66798;47.370;8.552;2023-11-21T06:26:10;96293.25;;;8.06;82.50
77631;BME280;66798;47.370;8.552;2023-11-21T06:28:36;96295.88;;;8.12;82.43
77631;BME280;66798;47.370;8.552;2023-11-21T06:31:02;96300.59;;;8.15;82.62
77631;BME280;66798;47.370;8.552;2023-11-21T06:33:33;96300.34;;;8.16;82.06
77631;BME280;66798;47.370;8.552;2023-11-21T06:35:59;96295.63;;;8.08;81.47
77631;BME280;66798;47.370;8.552;2023-11-21T06:38:27;96294.56;;;8.14;81.61
77631;BME280;66798;47.370;8.552;2023-11-21T06:40:57;96302.72;;;8.18;81.46
77631;BME280;66798;47.370;8.552;2023-11-21T06:43:23;96301.66;;;8.19;82.11
77631;BME280;66798;47.370;8.552;2023-11-21T06:45:49;96299.28;;;8.12;82.66
77631;BME280;66798;47.370;8.552;2023-11-21T06:48:14;96296.16;;;8.15;82.61
77631;BME280;66798;47.370;8.552;2023-11-21T06:50:40;96299.03;;;8.14;82.67
77631;BME280;66798;47.370;8.552;2023-11-21T06:53:05;96306.38;;;8.17;81.93
77631;BME280;66798;47.370;8.552;2023-11-21T06:55:33;96303.47;;;8.13;83.55
77631;BME280;66798;47.370;8.552;2023-11-21T06:57:58;96309.28;;;8.20;81.75
77631;BME280;66798;47.370;8.552;2023-11-21T07:00:26;96306.91;;;8.19;81.80
77631;BME280;66798;47.370;8.552;2023-11-21T07:02:54;96316.06;;;8.21;83.50
77631;BME280;66798;47.370;8.552;2023-11-21T07:05:20;96313.69;;;8.20;82.31
77631;BME280;66798;47.370;8.552;2023-11-21T07:07:47;96311.06;;;8.20;81.93
77631;BME280;66798;47.370;8.552;2023-11-21T07:10:13;96316.06;;;8.21;82.31
77631;BME280;66798;47.370;8.552;2023-11-21T07:12:39;96311.88;;;8.20;84.82
77631;BME280;66798;47.370;8.552;2023-11-21T07:15:06;96310.81;;;8.21;82.84
77631;BME280;66798;47.370;8.552;2023-11-21T07:17:34;96313.19;;;8.23;81.91
77631;BME280;66798;47.370;8.552;2023-11-21T07:20:01;96313.72;;;8.25;81.93
77631;BME280;66798;47.370;8.552;2023-11-21T07:22:26;96313.72;;;8.25;82.32
77631;BME280;66798;47.370;8.552;2023-11-21T07:24:52;96323.41;;;8.24;81.37
77631;BME280;66798;47.370;8.552;2023-11-21T07:27:18;96319.22;;;8.28;81.40
77631;BME280;66798;47.370;8.552;2023-11-21T07:29:44;96314.78;;;8.29;82.46
77631;BME280;66798;47.370;8.552;2023-11-21T07:32:10;96319.25;;;8.34;81.80
77631;BME280;66798;47.370;8.552;2023-11-21T07:34:36;96326.06;;;8.35;82.28
77631;BME280;66798;47.370;8.552;2023-11-21T07:37:02;96333.97;;;8.40;82.35
77631;BME280;66798;47.370;8.552;2023-11-21T07:39:28;96331.06;;;8.41;82.08
77631;BME280;66798;47.370;8.552;2023-11-21T07:41:54;96335.53;;;8.41;81.23
77631;BME280;66798;47.370;8.552;2023-11-21T07:44:19;96332.41;;;8.49;81.13
77631;BME280;66798;47.370;8.552;2023-11-21T07:46:45;96332.16;;;8.50;81.01
77631;BME280;66798;47.370;8.552;2023-11-21T07:49:12;96332.69;;;8.53;81.50
77631;BME280;66798;47.370;8.552;2023-11-21T07:51:40;96335.59;;;8.56;81.76
77631;BME280;66798;47.370;8.552;2023-11-21T07:54:05;96339.75;;;8.57;81.35
77631;BME280;66798;47.370;8.552;2023-11-21T07:56:31;96330.88;;;8.63;80.95
77631;BME280;66798;47.370;8.552;2023-11-21T07:58:56;96337.97;;;8.68;80.73
77631;BME280;66798;47.370;8.552;2023-11-21T08:01:21;96335.88;;;8.70;80.89
77631;BME280;66798;47.370;8.552;2023-11-21T08:03:47;96336.66;;;8.70;80.52
77631;BME280;66798;47.370;8.552;2023-11-21T08:06:16;96344.25;;;8.72;79.94
77631;BME280;66798;47.370;8.552;2023-11-21T08:08:42;96340.31;;;8.69;80.38
77631;BME280;66798;47.370;8.552;2023-11-21T08:11:08;96341.09;;;8.65;80.68
77631;BME280;66798;47.370;8.552;2023-11-21T08:13:35;96336.66;;;8.65;80.45
77631;BME280;66798;47.370;8.552;2023-11-21T08:16:01;96337.44;;;8.66;81.34
77631;BME280;66798;47.370;8.552;2023-11-21T08:18:30;96335.06;;;8.64;80.86
77631;BME280;66798;47.370;8.552;2023-11-21T08:20:56;96343.47;;;8.71;81.02
77631;BME280;66798;47.370;8.552;2023-11-21T08:23:22;96350.00;;;8.74;81.44
77631;BME280;66798;47.370;8.552;2023-11-21T08:25:51;96347.91;;;8.76;83.14
77631;BME280;66798;47.370;8.552;2023-11-21T08:28:16;96352.63;;;8.69;83.31
77631;BME280;66798;47.370;8.552;2023-11-21T08:30:42;96348.44;;;8.68;83.82
77631;BME280;66798;47.370;8.552;2023-11-21T08:33:08;96343.97;;;8.68;84.50
77631;BME280;66798;47.370;8.552;2023-11-21T08:35:34;96341.91;;;8.65;83.59
77631;BME280;66798;47.370;8.552;2023-11-21T08:38:01;96345.28;;;8.71;84.08
77631;BME280;66798;47.370;8.552;2023-11-21T08:40:28;96348.44;;;8.73;83.08
77631;BME280;66798;47.370;8.552;2023-11-21T08:42:54;96356.31;;;8.73;84.25
77631;BME280;66798;47.370;8.552;2023-11-21T08:45:21;96354.47;;;8.79;83.99
77631;BME280;66798;47.370;8.552;2023-11-21T08:47:47;96358.41;;;8.81;84.05
77631;BME280;66798;47.370;8.552;2023-11-21T08:50:12;96356.06;;;8.80;84.33
77631;BME280;66798;47.370;8.552;2023-11-21T08:52:38;96358.16;;;8.78;84.01
77631;BME280;66798;47.370;8.552;2023-11-21T08:55:04;96363.41;;;8.78;84.39
77631;BME280;66798;47.370;8.552;2023-11-21T08:57:36;96363.66;;;8.76;85.04
77631;BME280;66798;47.370;8.552;2023-11-21T09:00:05;96360.78;;;8.73;84.27
77631;BME280;66798;47.370;8.552;2023-11-21T09:02:41;96358.16;;;8.78;84.40
77631;BME280;66798;47.370;8.552;2023-11-21T09:05:11;96363.13;;;8.79;84.66
77631;BME280;66798;47.370;8.552;2023-11-21T09:07:38;96360.78;;;8.83;84.46
77631;BME280;66798;47.370;8.552;2023-11-21T09:10:04;96353.44;;;8.85;84.59
77631;BME280;66798;47.370;8.552;2023-11-21T09:12:33;96364.47;;;8.92;83.96
77631;BME280;66798;47.370;8.552;2023-11-21T09:15:03;96359.75;;;8.99;83.57
77631;BME280;66798;47.370;8.552;2023-11-21T09:17:30;96360.28;;;9.01;83.60
77631;BME280;66798;47.370;8.552;2023-11-21T09:19:55;96370.00;;;9.06;85.07
77631;BME280;66798;47.370;8.552;2023-11-21T09:22:22;96374.72;;;9.09;84.05
77631;BME280;66798;47.370;8.552;2023-11-21T09:24:50;96378.63;;;9.11;83.29
77631;BME280;66798;47.370;8.552;2023-11-21T09:27:15;96376.53;;;9.13;83.45
77631;BME280;66798;47.370;8.552;2023-11-21T09:29:42;96373.38;;;9.11;83.46
77631;BME280;66798;47.370;8.552;2023-11-21T09:32:08;96371.81;;;9.05;82.95
77631;BME280;66798;47.370;8.552;2023-11-21T09:34:34;96378.91;;;9.05;83.16
77631;BME280;66798;47.370;8.552;2023-11-21T09:37:06;96384.13;;;9.00;83.62
77631;BME280;66798;47.370;8.552;2023-11-21T09:39:35;96382.53;;;8.93;82.86
77631;BME280;66798;47.370;8.552;2023-11-21T09:42:13;96389.38;;;9.00;83.97
77631;BME280;66798;47.370;8.552;2023-11-21T09:45:03;96384.13;;;8.95;83.13
77631;BME280;66798;47.370;8.552;2023-11-21T09:47:29;96393.84;;;8.94;82.68
77631;BME280;66798;47.370;8.552;2023-11-21T09:49:56;96388.59;;;8.94;84.29
77631;BME280;66798;47.370;8.552;2023-11-21T09:52:26;96385.69;;;8.90;82.86
77631;BME280;66798;47.370;8.552;2023-11-21T09:54:53;96389.63;;;8.83;83.67
77631;BME280;66798;47.370;8.552;2023-11-21T09:57:23;96396.44;;;8.89;83.69
77631;BME280;66798;47.370;8.552;2023-11-21T09:59:53;96387.53;;;8.90;84.40
77631;BME280;66798;47.370;8.552;2023-11-21T10:02:26;96392.25;;;8.88;84.88
77631;BME280;66798;47.370;8.552;2023-11-21T10:04:54;96385.41;;;8.82;85.33
77631;BME280;66798;47.370;8.552;2023-11-21T10:07:20;96387.25;;;8.76;84.75
77631;BME280;66798;47.370;8.552;2023-11-21T10:09:47;96392.25;;;8.78;85.35
77631;BME280;66798;47.370;8.552;2023-11-21T10:12:15;96384.38;;;8.88;85.60
77631;BME280;66798;47.370;8.552;2023-11-21T10:14:42;96382.28;;;8.90;85.63
77631;BME280;66798;47.370;8.552;2023-11-21T10:17:10;96391.75;;;9.01;85.46
77631;BME280;66798;47.370;8.552;2023-11-21T10:19:39;96383.88;;;9.06;85.74
77631;BME280;66798;47.370;8.552;2023-11-21T10:22:05;96378.38;;;9.08;83.36
77631;BME280;66798;47.370;8.552;2023-11-21T10:24:32;96379.16;;;9.13;84.40
77631;BME280;66798;47.370;8.552;2023-11-21T10:26:58;96382.31;;;9.21;84.29
77631;BME280;66798;47.370;8.552;2023-11-21T10:29:23;96369.19;;;9.26;84.04
77631;BME280;66798;47.370;8.552;2023-11-21T10:31:50;96371.81;;;9.31;84.08
77631;BME280;66798;47.370;8.552;2023-11-21T10:34:18;96370.25;;;9.35;83.55
77631;BME280;66798;47.370;8.552;2023-11-21T10:36:45;96376.00;;;9.37;82.49
77631;BME280;66798;47.370;8.552;2023-11-21T19:28:33;96690.94;;;8.42;89.86
77631;BME280;66798;47.370;8.552;2023-11-21T19:30:58;96695.44;;;8.46;90.38
77631;BME280;66798;47.370;8.552;2023-11-21T19:33:25;96696.22;;;8.47;90.44
77631;BME280;66798;47.370;8.552;2023-11-21T19:35:52;96707.34;;;8.32;91.38
77631;BME280;66798;47.370;8.552;2023-11-21T19:38:18;96708.25;;;8.43;90.57
77631;BME280;66798;47.370;8.552;2023-11-21T19:40:47;96716.28;;;8.36;90.96
77631;BME280;66798;47.370;8.552;2023-11-21T19:43:12;96709.22;;;8.37;90.52
77631;BME280;66798;47.370;8.552;2023-11-21T19:45:38;96708.94;;;8.38;91.17
77631;BME280;66798;47.370;8.552;2023-11-21T19:48:04;96716.44;;;8.24;90.18
77631;BME280;66798;47.370;8.552;2023-11-21T19:50:31;96711.56;;;8.06;91.47
77631;BME280;66798;47.370;8.552;2023-11-21T19:52:58;96721.38;;;8.21;90.65
77631;BME280;66798;47.370;8.552;2023-11-21T19:55:23;96726.78;;;8.09;91.22
77631;BME280;66798;47.370;8.552;2023-11-21T19:57:49;96729.44;;;8.14;91.05
77631;BME280;66798;47.370;8.552;2023-11-21T20:00:15;96725.34;;;8.23;90.64
77631;BME280;66798;47.370;8.552;2023-11-21T20:02:42;96732.84;;;8.15;91.36
77631;BME280;66798;47.370;8.552;2023-11-21T20:05:09;96740.16;;;8.13;91.52
77631;BME280;66798;47.370;8.552;2023-11-21T20:07:35;96741.66;;;8.03;90.60
77631;BME280;66798;47.370;8.552;2023-11-21T20:10:00;96743.78;;;8.06;91.72
77631;BME280;66798;47.370;8.552;2023-11-21T20:12:26;96747.88;;;7.97;90.20
77631;BME280;66798;47.370;8.552;2023-11-21T20:14:52;96759.03;;;7.87;90.40
77631;BME280;66798;47.370;8.552;2023-11-21T20:17:18;96757.19;;;7.88;89.96
77631;BME280;66798;47.370;8.552;2023-11-21T20:19:44;96756.09;;;7.84;90.43
77631;BME280;66798;47.370;8.552;2023-11-21T20:22:10;96770.53;;;7.86;91.49
77631;BME280;66798;47.370;8.552;2023-11-21T20:24:37;96768.66;;;7.82;91.23
77631;BME280;66798;47.370;8.552;2023-11-21T20:27:03;96770.59;;;7.92;90.97
77631;BME280;66798;47.370;8.552;2023-11-21T20:29:32;96768.56;;;7.77;90.73
77631;BME280;66798;47.370;8.552;2023-11-21T20:31:58;96771.69;;;7.96;90.12
77631;BME280;66798;47.370;8.552;2023-11-21T20:34:24;96770.28;;;7.88;90.27
77631;BME280;66798;47.370;8.552;2023-11-21T20:36:50;96776.25;;;7.83;89.99
77631;BME280;66798;47.370;8.552;2023-11-21T20:39:16;96777.91;;;7.90;89.75
77631;BME280;66798;47.370;8.552;2023-11-21T20:41:42;96776.81;;;7.85;89.77
77631;BME280;66798;47.370;8.552;2023-11-21T20:44:08;96783.63;;;7.86;89.69
77631;BME280;66798;47.370;8.552;2023-11-21T20:46:44;96786.00;;;7.88;89.29
77631;BME280;66798;47.370;8.552;2023-11-21T20:49:12;96786.50;;;7.85;89.85
77631;BME280;66798;47.370;8.552;2023-11-21T20:51:41;96790.84;;;7.79;90.51
77631;BME280;66798;47.370;8.552;2023-11-21T20:54:07;96790.00;;;7.74;90.22
77631;BME280;66798;47.370;8.552;2023-11-21T20:56:33;96796.59;;;7.76;90.18
77631;BME280;66798;47.370;8.552;2023-11-21T20:59:00;96800.88;;;7.82;89.59
77631;BME280;66798;47.370;8.552;2023-11-21T21:01:31;96793.25;;;7.81;89.43
77631;BME280;66798;47.370;8.552;2023-11-21T21:03:57;96804.81;;;7.85;89.25
77631;BME280;66798;47.370;8.552;2023-11-21T21:06:22;96802.75;;;7.87;89.18
77631;BME280;66798;47.370;8.552;2023-11-21T21:08:48;96806.28;;;7.76;89.57
77631;BME280;66798;47.370;8.552;2023-11-21T21:11:17;96807.56;;;7.73;89.41
77631;BME280;66798;47.370;8.552;2023-11-21T21:13:45;96818.31;;;7.77;89.65
77631;BME280;66798;47.370;8.552;2023-11-21T21:16:10;96811.06;;;7.62;90.42
77631;BME280;66798;47.370;8.552;2023-11-21T21:18:36;96813.84;;;7.55;91.83
77631;BME280;66798;47.370;8.552;2023-11-21T21:21:02;96822.81;;;7.59;91.84
77631;BME280;66798;47.370;8.552;2023-11-21T21:23:27;96815.19;;;7.58;90.91
77631;BME280;66798;47.370;8.552;2023-11-21T21:25:53;96812.41;;;7.64;91.48
77631;BME280;66798;47.370;8.552;2023-11-21T21:28:20;96816.00;;;7.58;91.55
77631;BME280;66798;47.370;8.552;2023-11-21T21:30:46;96819.41;;;7.59;91.62
77631;BME280;66798;47.370;8.552;2023-11-21T21:33:12;96823.81;;;7.53;91.17
77631;BME280;66798;47.370;8.552;2023-11-21T21:35:37;96828.47;;;7.51;92.80
77631;BME280;66798;47.370;8.552;2023-11-21T21:38:02;96813.72;;;7.45;91.63
77631;BME280;66798;47.370;8.552;2023-11-21T21:40:29;96833.16;;;7.49;90.32
77631;BME280;66798;47.370;8.552;2023-11-21T21:42:56;96823.91;;;7.41;90.66
77631;BME280;66798;47.370;8.552;2023-11-21T21:45:23;96828.94;;;7.48;91.40
77631;BME280;66798;47.370;8.552;2023-11-21T21:47:48;96828.31;;;7.41;91.80
77631;BME280;66798;47.370;8.552;2023-11-21T21:50:15;96827.84;;;7.44;91.28
77631;BME280;66798;47.370;8.552;2023-11-21T21:52:40;96827.16;;;7.32;91.27
77631;BME280;66798;47.370;8.552;2023-11-21T21:55:08;96822.78;;;7.37;91.72
77631;BME280;66798;47.370;8.552;2023-11-21T21:57:36;96828.97;;;7.31;91.77
77631;BME280;66798;47.370;8.552;2023-11-21T22:00:02;96822.47;;;7.34;91.59
77631;BME280;66798;47.370;8.552;2023-11-21T22:02:33;96826.59;;;7.30;90.72
77631;BME280;66798;47.370;8.552;2023-11-21T22:04:58;96838.16;;;7.34;92.06
77631;BME280;66798;47.370;8.552;2023-11-21T22:07:24;96836.50;;;7.44;92.40
77631;BME280;66798;47.370;8.552;2023-11-21T22:09:49;96837.28;;;7.45;91.73
77631;BME280;66798;47.370;8.552;2023-11-21T22:12:15;96833.19;;;7.32;91.66
